Time;durP1;ratioP1;P1;durP2;ratioP2;P2;SDS_P1;SDS_P2;PMS_P1;PMS_P2;Temp;Humidity;BMP_temperature;BMP_pressure;BME280_temperature;BME280_humidity;BME280_pressure;Samples;Min_cycle;Max_cycle;Signal;HPM_P1;HPM_P2
2024/01/01 00:00:58;;;;;;;12.43;5.50;;;9.30;99.90;;;;;;5054509;28;20459;-73
2024/01/01 00:03:23;;;;;;;10.67;5.47;;;9.30;99.90;;;;;;5054107;28;20230;-73
2024/01/01 00:05:49;;;;;;;13.33;4.70;;;9.40;99.90;;;;;;5053024;28;20202;-73
2024/01/01 00:08:14;;;;;;;7.13;4.17;;;9.40;99.90;;;;;;5046722;28;20184;-73
2024/01/01 00:10:40;;;;;;;4.97;3.90;;;9.30;99.90;;;;;;5050755;28;20167;-73
2024/01/01 00:13:05;;;;;;;8.87;4.97;;;9.30;99.90;;;;;;5053847;28;20186;-74
2024/01/01 00:15:31;;;;;;;13.67;3.97;;;9.20;99.90;;;;;;5054165;28;20182;-73
2024/01/01 00:17:56;;;;;;;14.40;4.23;;;9.20;99.90;;;;;;5053979;28;20252;-72
2024/01/01 00:20:22;;;;;;;6.27;3.30;;;9.20;99.90;;;;;;5053930;28;20244;-73
2024/01/01 00:22:49;;;;;;;5.53;3.40;;;9.20;99.90;;;;;;5053803;28;20195;-73
2024/01/01 00:25:15;;;;;;;4.37;2.90;;;9.30;99.90;;;;;;5054027;28;20166;-73
2024/01/01 00:27:40;;;;;;;10.33;3.50;;;9.30;99.90;;;;;;5054033;28;20826;-73
2024/01/01 00:30:06;;;;;;;6.83;2.23;;;9.20;99.90;;;;;;5051771;28;20199;-73
2024/01/01 00:32:32;;;;;;;6.40;2.30;;;9.20;99.90;;;;;;5053547;28;20194;-73
2024/01/01 00:34:57;;;;;;;4.93;2.00;;;9.20;99.90;;;;;;5053542;28;20413;-73
2024/01/01 00:37:23;;;;;;;7.53;2.20;;;9.20;99.90;;;;;;5053791;28;20206;-73
2024/01/01 00:39:48;;;;;;;5.60;3.80;;;9.20;99.90;;;;;;5053837;28;20604;-73
2024/01/01 00:42:14;;;;;;;6.50;1.83;;;9.10;99.90;;;;;;5053501;28;20171;-73
2024/01/01 00:44:39;;;;;;;8.37;2.03;;;9.10;99.90;;;;;;5052359;28;20175;-73
2024/01/01 00:47:05;;;;;;;8.50;1.80;;;9.10;99.90;;;;;;5053657;28;20228;-73
2024/01/01 00:49:30;;;;;;;5.97;2.53;;;9.10;99.90;;;;;;5053503;28;20185;-73
2024/01/01 00:51:56;;;;;;;4.27;1.40;;;9.00;99.90;;;;;;5051914;28;20178;-73
2024/01/01 00:54:24;;;;;;;6.57;1.83;;;9.00;99.90;;;;;;5050011;28;20194;-73
2024/01/01 00:56:54;;;;;;;5.53;1.47;;;9.10;99.90;;;;;;5053370;28;20705;-73
2024/01/01 00:59:20;;;;;;;6.57;1.97;;;9.10;99.90;;;;;;5053172;28;20478;-73
2024/01/01 01:01:45;;;;;;;2.50;1.13;;;9.10;99.90;;;;;;5051752;28;20412;-74
2024/01/01 01:04:11;;;;;;;1.77;1.13;;;9.20;99.90;;;;;;5053046;28;20426;-73
2024/01/01 01:06:36;;;;;;;2.90;1.50;;;9.20;99.90;;;;;;5053266;28;20264;-73
2024/01/01 01:09:03;;;;;;;4.47;1.43;;;9.30;99.90;;;;;;5053596;28;20570;-73
2024/01/01 01:11:29;;;;;;;2.90;2.30;;;9.20;99.90;;;;;;5053215;28;20171;-73
2024/01/01 01:13:56;;;;;;;3.80;2.00;;;9.20;99.90;;;;;;5051493;28;20443;-72
2024/01/01 01:16:22;;;;;;;6.00;1.27;;;9.30;99.90;;;;;;5053008;28;20603;-73
2024/01/01 01:18:48;;;;;;;4.60;1.43;;;9.30;99.90;;;;;;5052902;28;20398;-73
2024/01/01 01:21:14;;;;;;;3.30;1.77;;;9.30;99.90;;;;;;5051664;28;21036;-73
2024/01/01 01:23:39;;;;;;;4.00;1.63;;;9.30;99.90;;;;;;5052688;28;20531;-73
2024/01/01 01:26:05;;;;;;;9.03;1.40;;;9.20;99.90;;;;;;5052917;28;20171;-73
2024/01/01 01:28:31;;;;;;;2.33;1.23;;;9.20;99.90;;;;;;5052901;28;20175;-73
2024/01/01 01:30:56;;;;;;;9.07;2.80;;;9.30;99.90;;;;;;5052796;28;20175;-73
2024/01/01 01:33:22;;;;;;;15.73;1.70;;;9.30;99.90;;;;;;5052378;28;20198;-73
2024/01/01 01:35:47;;;;;;;4.07;1.33;;;9.30;99.90;;;;;;5052609;28;20511;-73
2024/01/01 01:38:13;;;;;;;2.90;1.20;;;9.40;99.90;;;;;;5052727;28;20217;-73
2024/01/01 01:40:38;;;;;;;5.43;1.30;;;9.30;99.90;;;;;;5052262;28;20246;-73
2024/01/01 01:43:18;;;;;;;5.20;1.40;;;9.30;99.90;;;;;;5052227;28;20225;-73
2024/01/01 01:45:43;;;;;;;9.30;2.40;;;9.30;99.90;;;;;;5052437;28;20633;-73
2024/01/01 01:48:09;;;;;;;4.83;1.00;;;9.30;99.90;;;;;;5052478;28;20402;-73
2024/01/01 01:50:34;;;;;;;8.73;1.60;;;9.40;99.90;;;;;;5052466;28;20163;-73
2024/01/01 01:53:00;;;;;;;2.23;1.40;;;9.40;99.90;;;;;;5050776;28;20206;-73
2024/01/01 01:55:26;;;;;;;7.30;1.47;;;9.40;99.90;;;;;;5052335;28;20264;-73
2024/01/01 01:57:51;;;;;;;6.60;1.33;;;9.40;99.90;;;;;;5052293;28;20198;-73
2024/01/01 02:00:17;;;;;;;3.57;1.23;;;9.40;99.90;;;;;;5050952;28;20249;-73
2024/01/01 02:02:43;;;;;;;3.30;1.10;;;9.30;99.90;;;;;;5051901;28;20190;-73
2024/01/01 02:05:09;;;;;;;3.90;1.73;;;9.40;99.90;;;;;;5052177;28;20681;-72
2024/01/01 02:07:35;;;;;;;8.40;1.80;;;9.30;99.90;;;;;;5052141;28;20425;-73
2024/01/01 02:10:00;;;;;;;4.57;1.83;;;9.30;99.90;;;;;;5052009;28;20182;-73
2024/01/01 02:12:26;;;;;;;4.90;1.50;;;9.30;99.90;;;;;;5051770;28;20198;-73
2024/01/01 02:14:51;;;;;;;4.27;1.70;;;9.30;99.90;;;;;;5051942;28;20240;-73
2024/01/01 02:17:17;;;;;;;5.33;1.63;;;9.10;99.90;;;;;;5051896;28;20201;-73
2024/01/01 02:19:42;;;;;;;4.10;1.80;;;9.00;99.90;;;;;;5052070;28;20170;-73
2024/01/01 02:22:08;;;;;;;5.23;2.13;;;8.90;99.90;;;;;;5051695;28;20602;-73
2024/01/01 02:24:34;;;;;;;5.03;2.23;;;8.70;99.90;;;;;;5051875;28;20206;-73
2024/01/01 02:26:59;;;;;;;6.60;1.67;;;8.60;99.90;;;;;;5051910;28;20621;-73
2024/01/01 02:29:25;;;;;;;5.13;1.77;;;8.60;99.90;;;;;;5051827;28;20167;-73
2024/01/01 02:31:50;;;;;;;6.90;2.00;;;8.40;99.90;;;;;;5051559;28;20167;-73
2024/01/01 02:34:19;;;;;;;3.67;1.00;;;8.40;99.90;;;;;;5051724;28;20189;-73
2024/01/01 02:36:45;;;;;;;11.33;2.70;;;8.30;99.90;;;;;;5051753;28;20216;-73
2024/01/01 02:39:10;;;;;;;9.60;1.87;;;8.20;99.90;;;;;;5051803;28;20495;-73
2024/01/01 02:41:37;;;;;;;4.13;1.40;;;8.20;99.90;;;;;;5051530;28;20241;-72
2024/01/01 02:44:03;;;;;;;9.83;1.50;;;8.20;99.90;;;;;;5050246;28;20248;-73
2024/01/01 02:46:29;;;;;;;4.77;1.23;;;8.10;99.90;;;;;;5051681;28;20413;-73
2024/01/01 02:48:55;;;;;;;4.20;1.60;;;8.00;99.90;;;;;;5051671;28;20398;-73
2024/01/01 02:51:21;;;;;;;3.73;1.10;;;8.00;99.90;;;;;;5051668;28;20718;-73
2024/01/01 02:53:46;;;;;;;7.40;2.47;;;8.10;99.90;;;;;;5055016;28;20619;-73
2024/01/01 02:56:18;;;;;;;10.27;2.37;;;8.10;99.90;;;;;;5055697;28;20674;-73
2024/01/01 02:58:45;;;;;;;3.90;2.07;;;8.10;99.90;;;;;;5055636;28;20167;-72
2024/01/01 03:01:11;;;;;;;4.57;1.07;;;8.10;99.90;;;;;;5055575;28;20759;-73
2024/01/01 03:03:36;;;;;;;3.57;1.50;;;8.10;99.90;;;;;;5055287;28;20421;-73
2024/01/01 03:06:03;;;;;;;8.10;1.80;;;8.10;99.90;;;;;;5055449;28;20171;-73
2024/01/01 03:08:28;;;;;;;5.87;1.23;;;8.00;99.90;;;;;;5055520;28;20258;-72
2024/01/01 03:10:54;;;;;;;3.60;1.70;;;8.10;99.90;;;;;;5055529;28;20968;-73
2024/01/01 03:13:19;;;;;;;6.30;1.80;;;8.00;99.90;;;;;;5053840;28;20198;-73
2024/01/01 03:15:45;;;;;;;7.40;2.10;;;8.10;99.90;;;;;;5055188;28;20166;-73
2024/01/01 03:18:17;;;;;;;8.20;1.60;;;8.20;99.90;;;;;;5055381;28;20202;-73
2024/01/01 03:20:43;;;;;;;8.83;2.10;;;8.20;99.90;;;;;;5055277;28;20163;-73
2024/01/01 03:23:08;;;;;;;11.33;1.87;;;8.30;99.90;;;;;;5054962;28;20528;-73
2024/01/01 03:25:34;;;;;;;6.10;2.00;;;8.30;99.90;;;;;;5055135;28;20262;-73
2024/01/01 03:27:59;;;;;;;5.77;1.60;;;8.30;99.90;;;;;;5055173;28;20174;-73
2024/01/01 03:30:25;;;;;;;7.43;1.63;;;8.40;99.90;;;;;;5055053;28;20174;-73
2024/01/01 03:32:50;;;;;;;7.67;1.77;;;8.40;99.90;;;;;;5054804;28;20190;-73
2024/01/01 03:35:16;;;;;;;6.50;2.80;;;8.50;99.90;;;;;;5054959;28;20167;-73
2024/01/01 03:37:42;;;;;;;9.30;2.10;;;8.50;99.90;;;;;;5054994;28;20202;-73
2024/01/01 03:40:09;;;;;;;3.83;1.30;;;8.50;99.90;;;;;;5055037;28;20767;-73
2024/01/01 03:42:34;;;;;;;3.77;1.87;;;8.60;99.90;;;;;;5054531;28;20421;-73
2024/01/01 03:45:00;;;;;;;7.60;1.67;;;8.60;99.90;;;;;;5054716;28;20412;-73
2024/01/01 03:47:26;;;;;;;4.57;1.40;;;8.70;99.90;;;;;;5055067;28;20159;-73
2024/01/01 03:49:51;;;;;;;8.90;1.77;;;8.70;99.90;;;;;;5054759;28;20163;-73
2024/01/01 03:52:17;;;;;;;8.53;1.90;;;8.70;99.90;;;;;;5054289;28;20429;-73
2024/01/01 03:54:43;;;;;;;10.63;2.40;;;8.70;99.90;;;;;;5054556;28;20216;-73
2024/01/01 03:57:08;;;;;;;12.47;1.77;;;8.70;99.90;;;;;;5053297;28;20453;-73
2024/01/01 03:59:35;;;;;;;12.07;2.70;;;8.70;99.90;;;;;;5054556;28;20159;-73
2024/01/01 04:02:00;;;;;;;7.30;1.63;;;8.70;99.90;;;;;;5054285;28;20163;-73
2024/01/01 04:04:26;;;;;;;9.20;2.83;;;8.80;99.90;;;;;;5054144;28;20429;-73
2024/01/01 04:06:52;;;;;;;14.70;1.97;;;8.70;99.90;;;;;;5054415;28;20228;-73
2024/01/01 04:09:18;;;;;;;6.50;2.03;;;8.70;99.90;;;;;;5054426;28;20167;-73
2024/01/01 04:11:43;;;;;;;2.47;1.37;;;8.80;99.90;;;;;;5054092;28;20167;-73
2024/01/01 04:14:09;;;;;;;10.03;2.00;;;8.80;99.90;;;;;;5054051;28;20428;-73
2024/01/01 04:16:36;;;;;;;11.10;1.90;;;8.70;99.90;;;;;;5054169;28;20191;-73
2024/01/01 04:19:01;;;;;;;12.10;2.30;;;8.80;99.90;;;;;;5054267;28;20560;-73
2024/01/01 04:21:27;;;;;;;6.53;1.90;;;8.80;99.90;;;;;;5054134;28;20488;-73
2024/01/01 04:23:55;;;;;;;6.93;1.70;;;8.80;99.90;;;;;;5053797;28;20183;-73
2024/01/01 04:26:21;;;;;;;9.93;1.97;;;8.80;99.90;;;;;;5053976;28;20182;-73
2024/01/01 04:28:46;;;;;;;5.70;1.67;;;8.80;99.90;;;;;;5053954;28;20397;-73
2024/01/01 04:31:12;;;;;;;15.13;2.07;;;8.80;99.90;;;;;;5053976;28;20542;-73
2024/01/01 04:33:37;;;;;;;13.20;2.37;;;8.70;99.90;;;;;;5053634;28;20201;-73
2024/01/01 04:36:03;;;;;;;9.77;2.50;;;8.70;99.90;;;;;;5052480;28;20171;-73
2024/01/01 04:38:29;;;;;;;6.70;2.10;;;8.70;99.90;;;;;;5053885;28;20159;-73
2024/01/01 04:40:55;;;;;;;5.90;2.37;;;8.70;99.90;;;;;;5053731;28;20447;-73
2024/01/01 04:43:20;;;;;;;6.10;1.77;;;8.70;99.90;;;;;;5053410;28;20187;-73
2024/01/01 04:45:46;;;;;;;4.93;1.40;;;8.70;99.90;;;;;;5053640;28;20166;-73
2024/01/01 04:48:11;;;;;;;4.20;1.50;;;8.70;99.90;;;;;;5053669;28;20167;-73
2024/01/01 04:50:37;;;;;;;7.83;2.10;;;8.70;99.90;;;;;;5052326;28;20167;-73
2024/01/01 04:53:02;;;;;;;5.83;1.77;;;8.80;99.90;;;;;;5053162;28;20199;-72
2024/01/01 04:55:28;;;;;;;12.33;2.53;;;8.80;99.90;;;;;;5053424;28;20187;-73
2024/01/01 04:57:53;;;;;;;6.30;1.67;;;8.80;99.90;;;;;;5053386;28;20195;-73
2024/01/01 05:00:19;;;;;;;7.83;1.80;;;8.80;99.90;;;;;;5052241;28;20178;-73
2024/01/01 05:02:44;;;;;;;7.73;2.03;;;8.90;99.90;;;;;;5053034;28;20720;-73
2024/01/01 05:05:10;;;;;;;3.50;1.63;;;8.90;99.90;;;;;;5053245;28;20175;-73
2024/01/01 05:07:36;;;;;;;3.97;2.17;;;8.90;99.90;;;;;;5053237;28;20182;-73
2024/01/01 05:10:03;;;;;;;14.77;2.73;;;8.90;99.90;;;;;;5053341;28;20393;-72
2024/01/01 05:12:28;;;;;;;11.70;2.00;;;8.90;99.90;;;;;;5051589;28;20522;-72
2024/01/01 05:14:54;;;;;;;9.07;1.90;;;8.90;99.90;;;;;;5052376;28;20409;-72
2024/01/01 05:17:19;;;;;;;6.33;1.97;;;8.90;99.90;;;;;;5051792;28;20199;-73
2024/01/01 05:19:45;;;;;;;7.13;1.63;;;9.00;99.90;;;;;;5053021;28;20171;-73
2024/01/01 05:22:10;;;;;;;3.90;1.33;;;9.00;99.90;;;;;;5052768;28;20195;-72
2024/01/01 05:24:36;;;;;;;5.33;1.73;;;9.00;99.90;;;;;;5052856;28;20192;-73
2024/01/01 05:27:03;;;;;;;16.67;2.33;;;8.90;99.90;;;;;;5052905;28;20208;-72
2024/01/01 05:29:30;;;;;;;12.73;2.30;;;8.90;99.90;;;;;;5052909;28;20163;-73
2024/01/01 05:31:56;;;;;;;6.30;1.80;;;8.80;99.90;;;;;;5052547;28;20496;-73
2024/01/01 05:34:22;;;;;;;8.67;1.90;;;8.70;99.90;;;;;;5052689;28;20506;-72
2024/01/01 05:36:48;;;;;;;5.90;2.07;;;8.70;99.90;;;;;;5052644;28;20199;-73
2024/01/01 05:39:14;;;;;;;9.27;2.50;;;8.70;99.90;;;;;;5052634;28;20413;-73
2024/01/01 05:41:40;;;;;;;8.83;2.10;;;8.70;99.90;;;;;;5052408;28;20228;-73
2024/01/01 05:44:05;;;;;;;12.70;2.00;;;8.70;99.90;;;;;;5052489;28;20944;-73
2024/01/01 05:46:31;;;;;;;5.30;2.50;;;8.70;99.90;;;;;;5052514;28;20171;-73
2024/01/01 05:48:57;;;;;;;5.53;1.83;;;8.80;99.90;;;;;;5052516;28;20221;-73
2024/01/01 05:51:23;;;;;;;3.83;1.30;;;8.80;99.90;;;;;;5052448;28;20228;-72
2024/01/01 05:53:48;;;;;;;9.63;1.70;;;8.80;99.90;;;;;;5051970;28;20849;-73
2024/01/01 05:56:14;;;;;;;8.27;2.20;;;8.80;99.90;;;;;;5052338;28;20187;-73
2024/01/01 05:58:39;;;;;;;14.70;2.93;;;8.80;99.90;;;;;;5052360;28;20193;-73
2024/01/01 06:01:05;;;;;;;4.67;2.03;;;8.80;99.90;;;;;;5052295;28;20185;-73
2024/01/01 06:03:30;;;;;;;10.53;1.97;;;8.80;99.90;;;;;;5051993;28;20187;-73
2024/01/01 06:05:56;;;;;;;3.97;1.27;;;8.90;99.90;;;;;;5052157;28;20163;-73
2024/01/01 06:08:22;;;;;;;7.37;2.60;;;8.90;99.90;;;;;;5052136;28;20548;-73
2024/01/01 06:10:47;;;;;;;8.93;2.97;;;8.90;99.90;;;;;;5052070;28;20661;-73
2024/01/01 06:13:13;;;;;;;11.50;2.30;;;8.90;99.90;;;;;;5051890;28;20190;-73
2024/01/01 06:15:38;;;;;;;5.70;1.47;;;8.90;99.90;;;;;;5050809;28;20171;-72
2024/01/01 06:18:04;;;;;;;5.70;1.73;;;8.90;99.90;;;;;;5051973;28;20202;-73
2024/01/01 06:20:30;;;;;;;6.07;1.20;;;8.90;99.90;;;;;;5052013;28;20233;-72
2024/01/01 06:22:55;;;;;;;7.23;1.90;;;8.90;99.90;;;;;;5051667;28;20962;-72
2024/01/01 06:25:21;;;;;;;3.37;1.53;;;8.90;99.90;;;;;;5051863;28;20163;-73
2024/01/01 06:27:46;;;;;;;5.93;2.40;;;8.90;99.90;;;;;;5050999;28;20178;-73
2024/01/01 06:30:12;;;;;;;5.57;1.50;;;8.90;99.90;;;;;;5051929;28;20166;-73
2024/01/01 06:32:38;;;;;;;5.90;1.80;;;8.90;99.90;;;;;;5051619;28;20186;-72
2024/01/01 06:35:03;;;;;;;7.13;2.13;;;8.90;99.90;;;;;;5051755;28;20217;-73
2024/01/01 06:37:29;;;;;;;8.43;1.60;;;8.90;99.90;;;;;;5051691;28;20195;-73
2024/01/01 06:39:54;;;;;;;7.40;1.70;;;8.90;99.90;;;;;;5051750;28;20171;-73
2024/01/01 06:42:20;;;;;;;9.07;2.33;;;8.90;99.90;;;;;;5051505;28;20272;-72
2024/01/01 06:44:45;;;;;;;4.80;1.57;;;8.90;99.90;;;;;;5051664;28;20163;-72
2024/01/01 06:47:11;;;;;;;7.57;1.87;;;8.90;99.90;;;;;;5050535;28;20212;-73
2024/01/01 06:49:36;;;;;;;5.90;1.60;;;8.90;99.90;;;;;;5051720;28;20178;-73
2024/01/01 06:52:03;;;;;;;10.57;2.77;;;8.90;99.90;;;;;;5051242;28;20600;-73
2024/01/01 06:54:29;;;;;;;10.23;1.80;;;8.90;99.90;;;;;;5051544;28;20315;-72
2024/01/01 06:56:54;;;;;;;5.30;1.53;;;8.80;99.90;;;;;;5051544;28;20452;-73
2024/01/01 06:59:27;;;;;;;9.53;2.30;;;8.80;99.90;;;;;;5051651;28;20202;-73
2024/01/01 07:01:53;;;;;;;4.93;1.93;;;8.80;99.90;;;;;;5051394;28;20225;-73
2024/01/01 07:04:18;;;;;;;2.40;1.13;;;8.70;99.90;;;;;;5051545;28;20413;-73
2024/01/01 07:06:44;;;;;;;7.60;1.37;;;8.70;99.90;;;;;;5051545;28;20170;-72
2024/01/01 07:09:10;;;;;;;4.70;1.47;;;8.70;99.90;;;;;;5051528;28;20162;-73
2024/01/01 07:11:36;;;;;;;5.83;1.73;;;8.70;99.90;;;;;;5051527;28;20163;-73
2024/01/01 07:14:01;;;;;;;6.63;1.63;;;8.70;99.90;;;;;;5051155;28;20476;-73
2024/01/01 07:16:27;;;;;;;8.27;1.77;;;8.70;99.90;;;;;;5051432;28;20198;-73
2024/01/01 07:18:53;;;;;;;3.37;1.57;;;8.70;99.90;;;;;;5051425;28;20163;-73
2024/01/01 07:21:18;;;;;;;6.30;1.93;;;8.80;99.90;;;;;;5051359;28;20456;-73
2024/01/01 07:23:44;;;;;;;3.90;1.10;;;8.70;99.90;;;;;;5051003;28;20187;-73
2024/01/01 07:26:09;;;;;;;6.40;2.33;;;8.70;99.90;;;;;;5051389;28;20537;-73
2024/01/01 07:28:35;;;;;;;10.60;2.50;;;8.60;99.90;;;;;;5051349;28;20198;-73
2024/01/01 07:31:01;;;;;;;5.30;3.30;;;8.60;99.90;;;;;;5051335;28;20564;-73
2024/01/01 07:33:26;;;;;;;7.60;1.40;;;8.60;99.90;;;;;;5051025;28;20427;-73
2024/01/01 07:35:52;;;;;;;7.60;2.30;;;8.60;99.90;;;;;;5051127;28;20156;-72
2024/01/01 07:38:18;;;;;;;1.97;1.13;;;8.60;99.90;;;;;;5052222;28;20179;-73
2024/01/01 07:40:43;;;;;;;4.10;1.53;;;8.60;99.90;;;;;;5054996;28;20159;-73
2024/01/01 07:43:09;;;;;;;4.10;1.10;;;8.60;99.90;;;;;;5054665;28;20190;-73
2024/01/01 07:45:35;;;;;;;6.03;1.50;;;8.40;99.90;;;;;;5054785;28;20166;-73
2024/01/01 07:48:01;;;;;;;4.00;1.40;;;8.30;99.90;;;;;;5054942;28;20906;-73
2024/01/01 07:50:26;;;;;;;4.80;1.17;;;8.20;99.90;;;;;;5054792;28;20174;-73
2024/01/01 07:52:52;;;;;;;6.90;3.57;;;8.00;99.90;;;;;;5054276;28;20206;-73
2024/01/01 07:55:18;;;;;;;3.90;1.20;;;8.00;99.90;;;;;;5054623;28;20681;-72
2024/01/01 07:57:46;;;;;;;5.77;1.50;;;8.00;99.90;;;;;;5054526;28;20670;-73
2024/01/01 08:00:12;;;;;;;7.10;1.87;;;7.90;99.90;;;;;;5054604;28;20444;-72
2024/01/01 08:02:38;;;;;;;4.87;1.40;;;7.90;99.90;;;;;;5054260;28;20441;-73
2024/01/01 08:05:04;;;;;;;1.70;0.83;;;7.90;99.90;;;;;;5054328;28;20167;-73
2024/01/01 08:07:30;;;;;;;5.57;1.00;;;7.90;99.90;;;;;;5054397;28;20698;-73
2024/01/01 08:09:55;;;;;;;5.03;0.97;;;7.90;99.90;;;;;;5054160;28;20492;-73
2024/01/01 08:12:21;;;;;;;3.03;1.07;;;7.90;99.90;;;;;;5053923;28;20174;-73
2024/01/01 08:14:46;;;;;;;2.40;1.00;;;7.90;99.90;;;;;;5054113;28;20171;-73
2024/01/01 08:17:12;;;;;;;2.50;1.10;;;7.90;99.90;;;;;;5053914;28;20206;-73
2024/01/01 08:19:37;;;;;;;1.40;1.10;;;7.90;99.90;;;;;;5054008;28;20666;-73
2024/01/01 08:22:03;;;;;;;4.70;1.13;;;7.90;99.90;;;;;;5053497;28;20178;-73
2024/01/01 08:24:28;;;;;;;3.67;1.10;;;7.90;99.90;;;;;;5053833;28;20167;-73
2024/01/01 08:26:54;;;;;;;4.30;1.20;;;7.90;99.90;;;;;;5053866;28;20160;-73
2024/01/01 08:29:19;;;;;;;1.50;0.80;;;8.00;99.90;;;;;;5053837;28;20204;-73
2024/01/01 08:31:45;;;;;;;1.57;0.87;;;7.90;99.90;;;;;;5052319;28;20674;-73
2024/01/01 08:34:10;;;;;;;3.10;1.23;;;8.00;99.90;;;;;;5052143;28;20247;-73
2024/01/01 08:36:36;;;;;;;5.57;1.00;;;7.90;99.90;;;;;;5053618;28;20248;-73
2024/01/01 08:39:01;;;;;;;18.87;6.23;;;7.90;99.90;;;;;;5053627;28;20665;-73
2024/01/01 08:41:27;;;;;;;1.73;1.07;;;8.00;99.90;;;;;;5053649;28;20166;-73
2024/01/01 08:43:56;;;;;;;1.30;0.70;;;8.00;99.90;;;;;;5053217;28;20187;-73
2024/01/01 08:46:26;;;;;;;3.30;0.90;;;8.00;99.90;;;;;;5053581;28;20187;-73
2024/01/01 08:48:52;;;;;;;4.70;0.90;;;8.00;99.90;;;;;;5053255;28;20421;-73
2024/01/01 08:51:18;;;;;;;1.20;1.00;;;8.00;99.90;;;;;;5052596;28;20470;-73
2024/01/01 08:53:44;;;;;;;2.37;1.10;;;8.00;99.90;;;;;;5052886;28;20236;-73
2024/01/01 08:56:09;;;;;;;2.40;1.03;;;8.00;99.90;;;;;;5053137;28;20409;-73
2024/01/01 08:58:35;;;;;;;2.63;0.70;;;7.90;99.90;;;;;;5053191;28;20248;-73
2024/01/01 09:01:00;;;;;;;3.33;2.13;;;8.10;99.90;;;;;;5053179;28;20174;-73
2024/01/01 09:03:27;;;;;;;1.53;0.90;;;8.00;99.90;;;;;;5052804;28;20187;-73
2024/01/01 09:05:54;;;;;;;2.47;0.90;;;8.10;99.90;;;;;;5053083;28;20167;-73
2024/01/01 09:08:20;;;;;;;1.37;0.80;;;8.20;99.90;;;;;;5053052;28;20416;-73
2024/01/01 09:10:45;;;;;;;1.13;0.70;;;8.10;99.90;;;;;;5051868;28;20413;-73
2024/01/01 09:13:11;;;;;;;4.80;1.93;;;8.20;99.90;;;;;;5052732;28;20727;-73
2024/01/01 09:15:37;;;;;;;2.50;1.30;;;8.40;99.90;;;;;;5052921;28;20608;-73
2024/01/01 09:18:02;;;;;;;10.97;1.30;;;8.40;99.90;;;;;;5052857;28;20203;-74
2024/01/01 09:20:28;;;;;;;2.40;0.77;;;8.40;99.90;;;;;;5052918;28;20167;-73
2024/01/01 09:22:56;;;;;;;3.83;1.00;;;8.30;99.90;;;;;;5052503;28;20221;-73
2024/01/01 09:25:21;;;;;;;6.03;1.00;;;8.40;99.90;;;;;;5052712;28;20159;-73
2024/01/01 09:27:47;;;;;;;1.50;0.90;;;8.30;99.90;;;;;;5052716;28;20397;-73
2024/01/01 09:30:13;;;;;;;5.53;2.50;;;8.30;99.90;;;;;;5052705;28;20167;-73
2024/01/01 09:32:39;;;;;;;4.60;1.70;;;8.30;99.90;;;;;;5052304;28;20193;-72
2024/01/01 09:35:04;;;;;;;3.97;1.40;;;8.30;99.90;;;;;;5052464;28;20916;-73
2024/01/01 09:37:30;;;;;;;4.53;1.10;;;8.30;99.90;;;;;;5052412;28;20195;-73
2024/01/01 09:39:55;;;;;;;3.00;1.23;;;8.30;99.90;;;;;;5052544;28;20169;-74
2024/01/01 09:42:21;;;;;;;1.90;1.40;;;8.30;99.90;;;;;;5052143;28;20684;-73
2024/01/01 09:44:49;;;;;;;1.73;1.10;;;8.30;99.90;;;;;;5052237;28;20160;-71
2024/01/01 09:47:16;;;;;;;6.23;2.00;;;8.30;99.90;;;;;;5052155;28;20202;-71
2024/01/01 09:49:42;;;;;;;4.50;1.43;;;8.40;99.90;;;;;;5052372;28;20406;-74
2024/01/01 09:52:12;;;;;;;2.33;2.13;;;8.40;99.90;;;;;;5050657;28;20425;-73
2024/01/01 09:54:38;;;;;;;1.27;0.80;;;8.50;99.90;;;;;;5052246;28;20774;-74
2024/01/01 09:57:03;;;;;;;3.80;1.20;;;8.60;99.90;;;;;;5052162;28;20441;-74
2024/01/01 09:59:36;;;;;;;4.17;1.50;;;8.50;99.90;;;;;;5052257;28;20250;-73
2024/01/01 10:02:09;;;;;;;3.07;1.17;;;8.60;99.90;;;;;;5051874;28;20174;-74
2024/01/01 10:04:36;;;;;;;5.33;1.30;;;8.60;99.90;;;;;;5052008;28;20398;-72
2024/01/01 10:07:02;;;;;;;1.27;1.00;;;8.60;99.90;;;;;;5042816;28;20425;-72
2024/01/01 10:09:29;;;;;;;4.37;1.57;;;8.70;99.90;;;;;;5038460;28;21094;-72
2024/01/01 10:12:12;;;;;;;3.43;1.70;;;8.70;99.90;;;;;;5042546;28;20425;-72
2024/01/01 10:14:45;;;;;;;4.37;1.27;;;8.80;99.90;;;;;;5045866;28;20516;-72
2024/01/01 10:17:12;;;;;;;2.70;1.83;;;8.80;99.90;;;;;;5043860;28;20492;-72
2024/01/01 10:19:51;;;;;;;1.97;1.17;;;8.90;99.90;;;;;;5051620;28;20772;-72
2024/01/01 10:22:18;;;;;;;2.30;1.47;;;8.90;99.90;;;;;;5051467;28;20401;-72
2024/01/01 10:24:48;;;;;;;3.90;1.23;;;8.90;99.90;;;;;;5051583;28;20402;-72
2024/01/01 10:27:22;;;;;;;1.30;1.07;;;8.90;99.90;;;;;;5051639;28;20411;-71
2024/01/01 10:29:48;;;;;;;8.13;1.37;;;8.90;99.90;;;;;;5051651;28;20413;-73
2024/01/01 10:32:18;;;;;;;1.83;0.93;;;9.00;99.90;;;;;;5051380;28;20408;-72
2024/01/01 10:34:45;;;;;;;3.90;2.07;;;9.00;99.90;;;;;;5051411;28;20185;-72
2024/01/01 10:37:12;;;;;;;15.10;2.00;;;9.10;99.90;;;;;;5051358;28;20535;-73
2024/01/01 10:39:39;;;;;;;6.97;1.00;;;9.20;99.90;;;;;;5051490;28;20484;-72
2024/01/01 10:42:05;;;;;;;6.30;1.10;;;9.20;99.90;;;;;;5051145;28;20531;-72
2024/01/01 10:44:31;;;;;;;14.33;8.00;;;9.10;99.90;;;;;;5051429;28;20425;-72
2024/01/01 10:46:58;;;;;;;6.80;1.20;;;9.20;99.90;;;;;;5051526;28;20441;-72
2024/01/01 10:49:30;;;;;;;5.37;2.90;;;9.10;99.90;;;;;;5042859;28;20298;-72
2024/01/01 10:52:28;;;;;;;11.43;2.00;;;9.20;99.90;;;;;;5050966;28;20972;-72
2024/01/01 10:54:56;;;;;;;4.63;1.47;;;9.40;99.90;;;;;;5051463;28;20419;-73
2024/01/01 10:57:47;;;;;;;1.90;1.60;;;9.50;99.90;;;;;;5051200;28;20455;-72
2024/01/01 11:00:38;;;;;;;4.13;1.23;;;9.70;99.90;;;;;;5049400;28;20412;-73
2024/01/01 11:03:04;;;;;;;7.50;2.03;;;10.10;99.90;;;;;;5050979;28;20944;-72
2024/01/01 11:05:33;;;;;;;2.97;1.13;;;10.30;99.90;;;;;;5051181;28;20425;-72
2024/01/01 11:08:01;;;;;;;2.33;2.00;;;10.20;99.90;;;;;;5051337;28;20448;-72
2024/01/01 11:10:35;;;;;;;3.60;1.10;;;10.10;99.90;;;;;;5051183;28;20823;-72
2024/01/01 11:13:05;;;;;;;2.13;1.07;;;10.20;99.90;;;;;;5041047;28;20498;-72
2024/01/01 11:15:40;;;;;;;1.47;1.10;;;10.30;99.90;;;;;;5047197;28;20950;-73
2024/01/01 11:18:18;;;;;;;3.73;1.23;;;10.30;99.90;;;;;;5052786;28;20851;-73
2024/01/01 11:20:55;;;;;;;3.90;1.40;;;10.10;99.90;;;;;;5047843;28;20783;-73
2024/01/01 11:23:43;;;;;;;3.93;1.70;;;10.00;99.90;;;;;;5054618;28;20428;-72
2024/01/01 11:26:34;;;;;;;5.30;1.43;;;10.00;99.90;;;;;;5054887;28;20401;-72
2024/01/01 11:29:04;;;;;;;5.57;0.93;;;10.00;99.90;;;;;;5054826;28;20527;-73
2024/01/01 11:31:30;;;;;;;5.17;1.20;;;10.10;99.90;;;;;;5054793;28;20406;-73
2024/01/01 11:34:08;;;;;;;9.90;1.60;;;10.20;99.90;;;;;;5054367;28;20792;-73
2024/01/01 11:36:35;;;;;;;1.77;1.00;;;10.10;99.90;;;;;;5054695;28;20808;-73
2024/01/01 11:39:01;;;;;;;1.53;1.10;;;10.30;99.90;;;;;;5054727;28;20397;-73
2024/01/01 11:41:32;;;;;;;7.67;1.53;;;10.50;99.90;;;;;;5054656;28;20410;-72
2024/01/01 11:44:14;;;;;;;3.70;1.30;;;10.30;99.90;;;;;;5054257;28;20777;-72
2024/01/01 11:46:40;;;;;;;5.63;1.47;;;10.20;99.90;;;;;;5054467;28;20454;-72
2024/01/01 11:49:07;;;;;;;2.17;1.10;;;10.10;99.90;;;;;;5049410;28;21075;-72
2024/01/01 11:51:52;;;;;;;4.90;1.30;;;9.90;99.90;;;;;;5050720;28;20541;-72
2024/01/01 11:54:18;;;;;;;6.13;1.17;;;9.70;99.90;;;;;;5046741;28;20532;-72
2024/01/01 11:56:46;;;;;;;10.60;1.30;;;9.80;99.90;;;;;;5048857;28;20543;-72
2024/01/01 11:59:12;;;;;;;5.37;1.40;;;9.80;99.90;;;;;;5042597;28;20176;-72
2024/01/01 12:01:40;;;;;;;6.07;1.13;;;9.70;99.90;;;;;;5045050;28;20425;-72
2024/01/01 12:04:07;;;;;;;1.47;0.90;;;9.60;99.90;;;;;;5043406;28;20437;-72
2024/01/01 12:06:34;;;;;;;6.80;1.33;;;9.60;99.90;;;;;;5040149;28;20429;-72
2024/01/01 12:09:10;;;;;;;8.50;1.57;;;9.60;99.90;;;;;;5050614;28;20927;-72
2024/01/01 12:11:43;;;;;;;6.00;2.10;;;9.60;99.90;;;;;;5048375;28;20417;-72
2024/01/01 12:14:09;;;;;;;8.63;1.53;;;9.60;99.90;;;;;;5047706;28;20457;-71
2024/01/01 12:16:35;;;;;;;7.10;1.57;;;9.60;99.90;;;;;;5044362;28;20461;-72
2024/01/01 12:19:06;;;;;;;10.43;2.47;;;9.50;99.90;;;;;;5053510;28;20945;-72
2024/01/01 12:21:44;;;;;;;4.63;1.90;;;9.50;99.90;;;;;;5042598;28;20429;-72
2024/01/01 12:24:15;;;;;;;3.80;1.60;;;9.50;99.90;;;;;;5049395;28;20432;-72
2024/01/01 12:26:41;;;;;;;7.23;2.10;;;9.60;99.90;;;;;;5053647;28;20398;-72
2024/01/01 12:29:16;;;;;;;5.73;1.50;;;9.80;99.90;;;;;;5053663;28;20471;-72
2024/01/01 12:31:43;;;;;;;4.30;1.53;;;10.10;99.90;;;;;;5053433;28;20399;-72
2024/01/01 12:34:16;;;;;;;4.33;1.97;;;10.30;99.90;;;;;;5053530;28;20658;-72
2024/01/01 12:36:45;;;;;;;7.67;1.83;;;10.20;99.90;;;;;;5053660;28;20445;-72
2024/01/01 12:39:11;;;;;;;2.37;1.67;;;9.90;99.90;;;;;;5053679;28;20734;-72
2024/01/01 12:41:40;;;;;;;9.30;2.00;;;9.80;99.90;;;;;;5053434;28;20803;-72
2024/01/01 12:44:05;;;;;;;5.70;2.33;;;10.00;99.90;;;;;;5053285;28;20426;-73
2024/01/01 12:46:32;;;;;;;6.57;2.13;;;10.20;99.90;;;;;;5053443;28;20398;-72
2024/01/01 12:48:57;;;;;;;6.43;1.80;;;10.20;99.90;;;;;;5053379;28;20177;-72
2024/01/01 12:51:24;;;;;;;6.03;2.00;;;10.10;99.90;;;;;;5053366;28;20484;-73
2024/01/01 12:53:53;;;;;;;2.07;1.50;;;10.20;99.90;;;;;;5048689;28;20257;-72